createdAt,value
2019-03-11T00:05:34.798Z,66.26
2019-03-11T00:09:39.979Z,70.52
2019-03-11T00:13:45.174Z,72.68
2019-03-11T00:17:50.809Z,73.97
2019-03-11T00:21:56.030Z,74.69
2019-03-11T00:26:02.242Z,75.20
2019-03-11T00:30:07.783Z,75.15
2019-03-11T00:34:32.106Z,75.28
2019-03-11T00:43:15.273Z,76.13
2019-03-11T00:47:21.139Z,76.32
2019-03-11T00:51:26.692Z,76.21
2019-03-11T00:59:48.602Z,75.72
2019-03-11T01:03:53.802Z,75.41
2019-03-11T01:07:58.929Z,75.49
2019-03-11T01:12:04.099Z,75.54
2019-03-11T01:16:09.557Z,74.30
2019-03-11T01:20:14.879Z,74.28
2019-03-11T01:24:20.397Z,73.96
2019-03-11T01:32:42.721Z,72.88
2019-03-11T01:36:48.634Z,72.06
2019-03-11T01:40:54.703Z,71.44
2019-03-11T01:45:00.685Z,71.87
2019-03-11T01:49:05.864Z,71.42
2019-03-11T01:53:30.134Z,71.81
2019-03-11T01:57:35.318Z,71.81
2019-03-11T02:01:40.400Z,71.79
2019-03-11T02:05:45.603Z,72.02
2019-03-11T02:09:50.818Z,71.68
2019-03-11T02:13:56.038Z,71.28
2019-03-11T02:18:01.279Z,72.28
2019-03-11T02:22:17.086Z,71.71
2019-03-11T02:26:41.347Z,70.84
2019-03-11T02:30:47.489Z,70.36
2019-03-11T02:34:52.994Z,70.22
2019-03-11T02:38:58.129Z,69.81
2019-03-11T02:43:03.250Z,69.68
2019-03-11T02:47:08.411Z,70.01
2019-03-11T02:51:13.592Z,70.00
2019-03-11T02:55:18.702Z,70.38
2019-03-11T02:59:23.877Z,70.66
2019-03-11T03:03:48.162Z,70.42
2019-03-11T03:08:12.365Z,70.34
2019-03-11T03:12:17.461Z,70.43
2019-03-11T03:16:42.174Z,70.65
2019-03-11T03:20:47.365Z,70.25
2019-03-11T03:29:28.311Z,69.08
2019-03-11T03:33:33.440Z,67.13
2019-03-11T03:37:38.608Z,68.67
2019-03-11T03:41:44.272Z,69.22
2019-03-11T03:45:49.904Z,69.66
2019-03-11T03:49:55.775Z,69.53
2019-03-11T03:54:03.177Z,68.65
2019-03-11T03:58:08.383Z,68.50
2019-03-11T04:02:13.615Z,68.27
2019-03-11T04:06:18.718Z,68.83
2019-03-11T04:10:23.966Z,69.63
2019-03-11T04:14:29.206Z,70.60
2019-03-11T04:18:54.123Z,71.65
2019-03-11T04:23:38.835Z,75.19
2019-03-11T04:27:54.479Z,76.11
2019-03-11T04:31:59.958Z,75.66
2019-03-11T04:36:05.168Z,75.28
2019-03-11T04:44:53.370Z,74.14
2019-03-11T04:48:58.549Z,73.76
2019-03-11T04:57:41.717Z,72.51
2019-03-11T05:01:47.479Z,71.33
2019-03-11T05:05:53.308Z,70.96
2019-03-11T05:09:58.510Z,71.19
2019-03-11T05:14:03.972Z,71.21
2019-03-11T05:18:09.133Z,72.25
2019-03-11T05:22:33.711Z,76.77
2019-03-11T05:26:38.886Z,78.27
2019-03-11T05:30:44.041Z,79.60
2019-03-11T05:34:49.480Z,80.55
2019-03-11T05:38:54.659Z,80.60
2019-03-11T05:42:59.751Z,80.82
2019-03-11T05:47:04.967Z,80.83
2019-03-11T05:51:10.155Z,80.71
2019-03-11T05:55:55.310Z,80.45
2019-03-11T06:00:00.673Z,79.99
2019-03-11T06:04:05.855Z,78.74
2019-03-11T06:08:22.806Z,78.06
2019-03-11T06:12:27.943Z,78.11
2019-03-11T06:16:33.402Z,78.53
2019-03-11T06:20:57.605Z,78.74
2019-03-11T06:25:21.925Z,79.19
2019-03-11T06:29:38.430Z,80.65
2019-03-11T06:33:43.811Z,81.21
2019-03-11T06:37:49.157Z,81.60
2019-03-11T06:41:54.439Z,81.62
2019-03-11T06:45:59.778Z,81.55
2019-03-11T06:54:23.399Z,81.43
2019-03-11T06:58:30.301Z,81.26
2019-03-11T07:02:39.722Z,80.69
2019-03-11T07:06:56.850Z,79.90
2019-03-11T07:11:02.074Z,79.34
2019-03-11T07:15:43.503Z,79.15
2019-03-11T07:19:48.864Z,79.31
2019-03-11T07:23:54.442Z,78.97
2019-03-11T07:27:59.747Z,79.29
2019-03-11T07:32:04.844Z,79.92
2019-03-11T07:36:12.426Z,79.90
2019-03-11T07:40:36.203Z,80.25
2019-03-11T07:44:41.869Z,80.26
2019-03-11T07:48:48.593Z,79.74
2019-03-11T07:52:56.484Z,79.11
2019-03-11T07:57:03.467Z,78.93
2019-03-11T08:01:11.640Z,79.23
2019-03-11T08:05:17.991Z,79.79
2019-03-11T08:09:37.029Z,79.94
2019-03-11T08:14:06.482Z,79.67
2019-03-11T08:18:11.760Z,79.83
2019-03-11T08:22:17.116Z,79.88
2019-03-11T08:26:22.387Z,79.43
2019-03-11T08:30:27.640Z,79.79
2019-03-11T08:34:47.721Z,79.08
2019-03-11T08:39:21.104Z,79.38
2019-03-11T08:44:05.194Z,79.91
2019-03-11T08:48:52.950Z,79.57
2019-03-11T09:01:33.551Z,78.37
2019-03-11T09:09:56.269Z,77.77
2019-03-11T09:14:14.696Z,77.10
2019-03-11T09:18:22.473Z,76.49
2019-03-11T09:22:29.440Z,76.80
2019-03-11T09:26:40.641Z,77.08
2019-03-11T09:30:46.100Z,77.42
2019-03-11T09:34:51.508Z,77.67
2019-03-11T09:43:48.119Z,78.89
2019-03-11T09:57:25.125Z,80.54
2019-03-11T10:01:30.298Z,81.09
2019-03-11T10:05:35.416Z,81.39
2019-03-11T10:09:40.598Z,81.43
2019-03-11T10:13:46.095Z,81.22
2019-03-11T10:17:51.424Z,81.03
2019-03-11T10:21:59.723Z,80.55
2019-03-11T10:26:06.604Z,80.31
2019-03-11T10:30:25.139Z,80.28
2019-03-11T10:34:30.389Z,79.62
2019-03-11T10:38:35.693Z,78.33
2019-03-11T10:42:40.947Z,78.04
2019-03-11T10:46:46.200Z,77.04
2019-03-11T10:50:51.420Z,77.20
2019-03-11T10:54:56.626Z,76.08
2019-03-11T10:59:01.814Z,75.70
2019-03-11T11:03:06.975Z,71.07
2019-03-11T11:08:20.917Z,71.26
2019-03-11T11:12:23.150Z,71.03
2019-03-11T11:16:28.329Z,68.87
2019-03-11T11:20:35.661Z,68.19
2019-03-11T11:24:40.803Z,67.26
2019-03-11T11:28:46.118Z,66.59
2019-03-11T11:32:51.442Z,67.08
2019-03-11T11:36:57.597Z,65.53
2019-03-11T11:41:07.276Z,63.56
2019-03-11T11:45:14.197Z,64.21
2019-03-11T11:49:19.423Z,61.92
2019-03-11T11:53:25.970Z,62.39
2019-03-11T11:57:36.130Z,59.43
2019-03-11T12:01:44.376Z,59.91
2019-03-11T12:05:49.518Z,59.67
2019-03-11T12:09:54.629Z,59.99
2019-03-11T12:13:59.899Z,60.46
2019-03-11T12:18:05.666Z,60.34
2019-03-11T12:22:10.879Z,60.88
2019-03-11T12:26:16.151Z,56.78
2019-03-11T12:30:23.034Z,58.50
2019-03-11T12:34:30.667Z,56.50
2019-03-11T12:38:36.866Z,56.28
2019-03-11T12:42:42.161Z,55.21
2019-03-11T12:46:47.933Z,55.67
2019-03-11T12:50:53.129Z,54.65
2019-03-11T12:54:58.584Z,55.94
2019-03-11T12:59:03.693Z,52.57
2019-03-11T13:03:08.907Z,53.10
2019-03-11T13:07:14.151Z,49.46
2019-03-11T13:11:19.322Z,52.07
2019-03-11T13:15:24.636Z,52.10
2019-03-11T13:19:29.748Z,52.63
2019-03-11T13:23:35.192Z,52.31
2019-03-11T13:27:40.423Z,52.62
2019-03-11T13:31:45.598Z,52.73
2019-03-11T13:35:50.738Z,49.15
2019-03-11T13:39:55.939Z,47.55
2019-03-11T13:44:04.639Z,48.33
2019-03-11T13:48:09.704Z,52.11
2019-03-11T13:52:14.885Z,51.67
2019-03-11T13:56:20.284Z,50.47
2019-03-11T14:00:28.100Z,49.95
2019-03-11T14:04:33.496Z,50.80
2019-03-11T14:08:38.970Z,50.59
2019-03-11T14:12:44.167Z,51.63
2019-03-11T14:16:49.328Z,51.19
2019-03-11T14:20:54.471Z,51.86
2019-03-11T14:25:00.025Z,51.31
2019-03-11T14:29:05.640Z,50.60
2019-03-11T14:33:10.769Z,51.16
2019-03-11T14:37:16.966Z,51.51
2019-03-11T14:41:22.035Z,52.15
2019-03-11T14:45:27.322Z,52.15
2019-03-11T14:49:32.491Z,53.86
2019-03-11T14:53:37.609Z,54.52
2019-03-11T14:57:43.283Z,53.12
2019-03-11T15:01:49.508Z,53.94
2019-03-11T15:05:57.356Z,49.97
2019-03-11T15:10:02.511Z,49.97
2019-03-11T15:14:07.875Z,50.10
2019-03-11T15:18:13.031Z,51.43
2019-03-11T15:22:22.381Z,51.61
2019-03-11T15:26:27.720Z,53.01
2019-03-11T15:30:32.995Z,52.75
2019-03-11T15:34:38.167Z,53.63
2019-03-11T15:38:43.359Z,53.97
2019-03-11T15:42:48.752Z,53.75
2019-03-11T15:46:56.392Z,50.93
2019-03-11T15:51:00.839Z,49.44
2019-03-11T15:55:06.668Z,51.71
2019-03-11T15:59:11.832Z,51.51
2019-03-11T16:03:17.033Z,52.29
2019-03-11T16:07:22.126Z,50.78
2019-03-11T16:11:27.245Z,53.29
2019-03-11T16:15:32.484Z,53.29
2019-03-11T16:19:37.683Z,51.23
2019-03-11T16:23:42.886Z,52.94
2019-03-11T16:27:48.030Z,51.64
2019-03-11T16:31:53.244Z,53.50
2019-03-11T16:35:58.829Z,51.76
2019-03-11T16:40:04.202Z,51.76
2019-03-11T16:44:09.450Z,54.35
2019-03-11T16:48:14.569Z,52.26
2019-03-11T16:52:20.371Z,52.46
2019-03-11T16:56:27.347Z,53.37
2019-03-11T17:00:36.672Z,52.68
2019-03-11T17:04:42.463Z,53.23
2019-03-11T17:08:47.585Z,55.39
2019-03-11T17:12:52.769Z,55.22
2019-03-11T17:16:59.720Z,56.97
2019-03-11T17:21:04.891Z,57.36
2019-03-11T17:25:10.875Z,56.99
2019-03-11T17:29:16.075Z,57.69
2019-03-11T17:33:22.908Z,57.56
2019-03-11T17:37:29.056Z,57.69
2019-03-11T17:41:34.240Z,57.72
2019-03-11T17:45:39.357Z,58.49
2019-03-11T17:49:44.509Z,58.09
2019-03-11T17:53:49.668Z,57.91
2019-03-11T17:57:54.776Z,57.79
2019-03-11T18:01:59.959Z,58.09
2019-03-11T18:06:11.553Z,58.12
2019-03-11T18:10:12.105Z,58.58
2019-03-11T18:14:19.814Z,59.73
2019-03-11T18:18:33.025Z,59.70
2019-03-11T18:22:48.135Z,57.05
2019-03-11T18:27:01.097Z,57.07
2019-03-11T18:31:06.345Z,56.81
2019-03-11T18:35:11.506Z,56.57
2019-03-11T18:39:19.266Z,57.79
2019-03-11T18:43:24.714Z,57.55
2019-03-11T18:47:37.342Z,57.67
2019-03-11T18:51:44.160Z,58.64
2019-03-11T18:55:49.370Z,58.11
2019-03-11T18:59:54.856Z,59.08
2019-03-11T19:04:00.476Z,58.94
2019-03-11T19:08:05.593Z,59.50
2019-03-11T19:12:11.093Z,60.20
2019-03-11T19:16:16.330Z,60.87
2019-03-11T19:20:21.547Z,60.34
2019-03-11T19:24:26.720Z,60.41
2019-03-11T19:28:31.826Z,60.74
2019-03-11T19:32:37.016Z,60.52
2019-03-11T19:36:42.184Z,61.38
2019-03-11T19:40:48.420Z,60.80
2019-03-11T19:44:54.650Z,61.25
2019-03-11T19:49:00.314Z,61.66
2019-03-11T19:53:05.486Z,61.49
2019-03-11T19:57:10.715Z,61.65
2019-03-11T20:01:15.862Z,61.73
2019-03-11T20:05:22.870Z,61.73
2019-03-11T20:09:28.083Z,62.14
2019-03-11T20:13:33.368Z,62.10
2019-03-11T20:17:38.888Z,62.03
2019-03-11T20:21:44.136Z,62.21
2019-03-11T20:25:49.264Z,62.50
2019-03-11T20:29:54.401Z,62.73
2019-03-11T20:33:59.545Z,63.55
2019-03-11T20:38:04.830Z,63.61
2019-03-11T20:42:10.010Z,63.53
2019-03-11T20:46:15.161Z,63.96
2019-03-11T20:50:20.280Z,64.43
2019-03-11T20:54:25.599Z,64.28
2019-03-11T20:58:30.939Z,64.02
2019-03-11T21:02:36.155Z,64.39
2019-03-11T21:06:41.300Z,64.90
2019-03-11T21:10:46.486Z,65.39
2019-03-11T21:14:51.717Z,65.71
2019-03-11T21:18:56.923Z,65.98
2019-03-11T21:23:02.497Z,66.82
2019-03-11T21:27:07.715Z,66.87
2019-03-11T21:31:12.826Z,67.22
2019-03-11T21:35:19.190Z,67.71
2019-03-11T21:39:24.546Z,68.20
2019-03-11T21:43:32.123Z,68.65
2019-03-11T21:47:38.325Z,68.99
2019-03-11T21:51:46.609Z,69.31
2019-03-11T21:55:56.827Z,69.59
2019-03-11T22:00:02.986Z,69.84
2019-03-11T22:04:09.522Z,70.26
2019-03-11T22:08:17.688Z,70.35
2019-03-11T22:12:24.666Z,70.65
2019-03-11T22:16:29.774Z,70.77
2019-03-11T22:20:34.882Z,70.88
2019-03-11T22:24:40.359Z,70.99
2019-03-11T22:28:45.530Z,71.36
2019-03-11T22:32:50.757Z,71.66
2019-03-11T22:36:56.222Z,71.86
2019-03-11T22:41:01.370Z,71.70
2019-03-11T22:45:07.593Z,72.16
2019-03-11T22:49:12.783Z,72.15
2019-03-11T22:53:17.961Z,72.39
2019-03-11T22:57:23.231Z,72.48
2019-03-11T23:01:28.416Z,72.69
2019-03-11T23:05:35.540Z,73.12
2019-03-11T23:09:41.673Z,73.13
2019-03-11T23:13:46.836Z,73.41
2019-03-11T23:17:52.065Z,73.61
2019-03-11T23:21:57.212Z,73.62
2019-03-11T23:26:02.346Z,73.91
2019-03-11T23:30:07.706Z,73.39
2019-03-11T23:34:12.870Z,73.53
2019-03-11T23:38:18.027Z,73.71
2019-03-11T23:42:23.130Z,73.47
2019-03-11T23:46:28.348Z,73.45
2019-03-11T23:50:33.923Z,73.48
2019-03-11T23:54:39.073Z,73.13
2019-03-11T23:58:45.218Z,72.59
